Pride Of Kent — MQCJ2 — position and weather

sailwx.info

Track history (hours):
 
Tides and Currents Weather Stations Pressure Air Temp Water Temp Dewpoint Dewpoint Depression Visibility Wind Speed Wind Dir Waves Ship Positions

Pride Of Kent

Operator: P & O Ferries

Last reported at 2018-Jul-22 06:59 UTC. Time now 2018-Jul-22 07:01 UTC.
Position N 50°58' E 001°51'.

Length 180 m; draft 6 m.

Type: Passenger vessel. MMSI: 232009000.

Date/timePositionNaut miles runAvg speedWind from/ knotsBaromVisibWave heightAir tempDewpointWater temp
2018-Jul-22 06:59N 50°58' E 001°51'4 8.6
2018-Jul-22 06:31N 50°58' E 001°45'1020.1
2018-Jul-22 06:01N 51°03' E 001°31'813.7
2018-Jul-22 05:26N 51°07' E 001°20'0 0.0
2018-Jul-22 04:38N 51°07' E 001°20'0 0.0
2018-Jul-22 04:22N 51°07' E 001°20'4 9.7
2018-Jul-22 04:01N 51°06' E 001°25'1019.8
2018-Jul-22 03:30N 51°01' E 001°39'816.0
2018-Jul-22 03:00N 50°58' E 001°51'0 0.4
2018-Jul-22 02:31N 50°58' E 001°51'0 0.0
2018-Jul-22 02:01N 50°58' E 001°51'0 0.0
2018-Jul-22 01:30N 50°58' E 001°51'0 0.0
2018-Jul-22 01:01N 50°58' E 001°51'0 0.0
2018-Jul-22 00:31N 50°58' E 001°51'0 0.0
2018-Jul-22 00:01N 50°58' E 001°51'0 0.0
2018-Jul-21 23:30N 50°58' E 001°51'0 0.0
2018-Jul-21 23:01N 50°58' E 001°51'0 0.0
2018-Jul-21 22:31N 50°58' E 001°51'0 0.0
2018-Jul-21 22:00N 50°58' E 001°51'0 0.0
2018-Jul-21 21:30N 50°58' E 001°51'0 0.0
2018-Jul-21 21:01N 50°58' E 001°51'0 0.0
2018-Jul-21 20:30N 50°58' E 001°51'5 9.3
2018-Jul-21 20:00N 50°58' E 001°44'1019.6
2018-Jul-21 19:31N 51°04' E 001°31'8 8.3
2018-Jul-21 18:35N 51°07' E 001°20'0 0.3
2018-Jul-21 18:16N 51°07' E 001°20'2 8.0
2018-Jul-21 18:01N 51°07' E 001°23'918.2
2018-Jul-21 17:30N 51°02' E 001°36'917.6
2018-Jul-21 17:00N 50°58' E 001°48'2 3.2
2018-Jul-21 16:30N 50°58' E 001°51'0 0.0
2018-Jul-21 16:00N 50°58' E 001°51'511.0
2018-Jul-21 15:30N 50°59' E 001°42'918.7
2018-Jul-21 15:01N 51°03' E 001°30'7 9.1
2018-Jul-21 14:13N 51°07' E 001°20'1 1.1
2018-Jul-21 13:30N 51°07' E 001°20'918.2
2018-Jul-21 13:01N 51°03' E 001°33'1019.4
2018-Jul-21 12:31N 50°58' E 001°46'3 6.1
2018-Jul-21 12:00N 50°58' E 001°51'0 0.0
2018-Jul-21 11:30N 50°58' E 001°51'5 9.4
2018-Jul-21 11:01N 50°58' E 001°43'1019.1
2018-Jul-21 10:30N 51°03' E 001°31'8 7.8
2018-Jul-21 09:29N 51°07' E 001°20'0 0.3
2018-Jul-21 09:00N 51°07' E 001°20'816.3
2018-Jul-21 08:30N 51°04' E 001°32'1019.0
2018-Jul-21 08:00N 50°58' E 001°44'4 8.8
2018-Jul-21 07:31N 50°58' E 001°51'0 0.0
2018-Jul-21 07:01N 50°58' E 001°51'2 3.6
2018-Jul-21 06:30N 50°58' E 001°48'918.8
2018-Jul-21 06:00N 51°01' E 001°34'1020.0
2018-Jul-21 05:30N 51°06' E 001°20'1 0.9
2018-Jul-21 04:16N 51°07' E 001°20'1 5.1
2018-Jul-21 04:00N 51°07' E 001°22'816.5
2018-Jul-21 03:30N 51°04' E 001°34'816.0
2018-Jul-21 03:00N 50°59' E 001°44'4 8.9
2018-Jul-21 02:31N 50°58' E 001°51'0 0.0
2018-Jul-21 02:00N 50°58' E 001°51'0 0.3
2018-Jul-21 01:30N 50°58' E 001°51'816.1
2018-Jul-21 01:00N 50°60' E 001°38'1019.5
2018-Jul-21 00:31N 51°05' E 001°26'4 6.6
2018-Jul-20 23:53N 51°07' E 001°20'0 0.2
2018-Jul-20 22:54N 51°07' E 001°20'614.9
2018-Jul-20 22:31N 51°06' E 001°29'918.5
2018-Jul-20 22:01N 50°60' E 001°41'713.6
2018-Jul-20 21:30N 50°58' E 001°51'0 0.0
2018-Jul-20 21:00N 50°58' E 001°51'3 5.2
2018-Jul-20 20:30N 50°58' E 001°47'1019.6
2018-Jul-20 20:00N 51°02' E 001°33'1019.1
2018-Jul-20 19:31N 51°07' E 001°20'0 0.2
2018-Jul-20 18:53N 51°07' E 001°20'0 0.0
2018-Jul-20 18:25N 51°07' E 001°20'2 4.2
2018-Jul-20 18:01N 51°06' E 001°22'816.6
2018-Jul-20 17:31N 51°03' E 001°34'918.3
2018-Jul-20 17:01N 50°58' E 001°46'3 5.4
2018-Jul-20 16:29N 50°58' E 001°51'0 0.0
2018-Jul-20 16:00N 50°58' E 001°51'816.0
2018-Jul-20 15:30N 50°59' E 001°38'1019.1
2018-Jul-20 15:00N 51°05' E 001°26'5 3.8
2018-Jul-20 13:49N 51°07' E 001°20'414.2
2018-Jul-20 13:30N 51°06' E 001°27'1019.7
2018-Jul-20 13:01N 51°00' E 001°40'815.0
2018-Jul-20 12:30N 50°58' E 001°51'0 0.1
2018-Jul-20 12:00N 50°58' E 001°51'0 0.0
2018-Jul-20 11:30N 50°58' E 001°51'611.3
2018-Jul-20 11:00N 50°58' E 001°42'918.6
2018-Jul-20 10:31N 51°03' E 001°29'810.3
2018-Jul-20 09:47N 51°07' E 001°20'0 0.0
2018-Jul-20 09:29N 51°07' E 001°20'0 0.5
2018-Jul-20 09:00N 51°07' E 001°20'918.4
2018-Jul-20 08:30N 51°04' E 001°34'919.0
2018-Jul-20 08:00N 50°58' E 001°46'3 6.6
2018-Jul-20 07:30N 50°58' E 001°51'0 0.0
2018-Jul-20 07:00N 50°58' E 001°51'4 8.5
2018-Jul-20 06:30N 50°58' E 001°44'1020.0
2018-Jul-20 06:01N 51°03' E 001°31'815.2
2018-Jul-20 05:28N 51°07' E 001°20'0 0.0
2018-Jul-20 04:59N 51°07' E 001°20'0 0.0
2018-Jul-20 04:30N 51°07' E 001°20'3 5.6
2018-Jul-20 04:01N 51°07' E 001°25'714.7
2018-Jul-20 03:30N 51°03' E 001°34'815.5
2018-Jul-20 03:00N 50°59' E 001°44'4 8.8
2018-Jul-20 02:31N 50°58' E 001°51'0 0.0
2018-Jul-20 02:01N 50°58' E 001°51'0 0.7
2018-Jul-20 01:30N 50°58' E 001°51'816.8
2018-Jul-20 01:00N 50°59' E 001°37'1019.0
2018-Jul-20 00:30N 51°05' E 001°25'4 7.8
2018-Jul-20 00:00N 51°07' E 001°20'0 0.0
2018-Jul-19 23:30N 51°07' E 001°20'0 0.3
2018-Jul-19 23:01N 51°07' E 001°20'713.9
2018-Jul-19 22:30N 51°05' E 001°30'918.0
2018-Jul-19 22:00N 50°59' E 001°42'611.6
2018-Jul-19 21:30N 50°58' E 001°51'0 0.0
2018-Jul-19 21:00N 50°58' E 001°51'3 5.5
2018-Jul-19 20:30N 50°58' E 001°47'917.2
2018-Jul-19 20:00N 51°01' E 001°34'918.8
2018-Jul-19 19:30N 51°07' E 001°22'1 2.5
2018-Jul-19 18:56N 51°07' E 001°20'1 1.3
2018-Jul-19 18:30N 51°07' E 001°20'3 6.9
2018-Jul-19 18:01N 51°06' E 001°25'510.7
2018-Jul-19 17:30N 51°11' E 001°28'3 6.7
2018-Jul-19 17:00N 51°08' E 001°26'4 6.8
2018-Jul-19 16:29N 51°07' E 001°20'0 0.2
2018-Jul-19 15:56N 51°07' E 001°20'614.7
2018-Jul-19 15:30N 51°06' E 001°30'815.4
2018-Jul-19 15:00N 51°00' E 001°39'8 7.9
2018-Jul-19 14:01N 50°58' E 001°51'0 0.0
2018-Jul-19 13:30N 50°58' E 001°51'0 0.0
2018-Jul-19 13:01N 50°58' E 001°51'0 0.0
2018-Jul-19 12:30N 50°58' E 001°51'0 0.0
2018-Jul-19 12:01N 50°58' E 001°51'3 5.1
2018-Jul-19 11:30N 50°58' E 001°47'817.0
2018-Jul-19 11:00N 51°01' E 001°34'918.2
2018-Jul-19 10:30N 51°06' E 001°22'2 4.0
2018-Jul-19 10:00N 51°07' E 001°20'0 0.0
2018-Jul-19 09:30N 51°07' E 001°20'1 2.5
2018-Jul-19 09:00N 51°07' E 001°22'917.7
2018-Jul-19 08:31N 51°04' E 001°35'918.4
2018-Jul-19 08:01N 50°58' E 001°46'3 5.7
2018-Jul-19 07:30N 50°58' E 001°51'0 0.0
2018-Jul-19 07:00N 50°58' E 001°51'510.1
2018-Jul-19 06:30N 50°58' E 001°43'1019.3
2018-Jul-19 06:01N 51°01' E 001°29'815.9
2018-Jul-19 05:30N 51°07' E 001°20'0 0.0
2018-Jul-19 05:01N 51°07' E 001°20'0 0.0
2018-Jul-19 04:30N 51°07' E 001°20'2 3.8
2018-Jul-19 04:01N 51°07' E 001°23'816.6
2018-Jul-19 03:31N 51°04' E 001°35'917.1
2018-Jul-19 03:00N 50°58' E 001°45'4 7.6
2018-Jul-19 02:30N 50°58' E 001°51'0 0.0
2018-Jul-19 02:00N 50°58' E 001°51'0 0.0
2018-Jul-19 01:30N 50°58' E 001°51'611.9
2018-Jul-19 01:00N 50°58' E 001°42'918.9
2018-Jul-19 00:31N 51°03' E 001°28'713.0
2018-Jul-18 23:58N 51°07' E 001°20'0 0.0
2018-Jul-18 23:30N 51°07' E 001°20'0 0.3
2018-Jul-18 23:00N 51°07' E 001°20'714.0
2018-Jul-18 22:30N 51°05' E 001°31'815.8
2018-Jul-18 22:00N 50°60' E 001°40'713.9
2018-Jul-18 21:30N 50°58' E 001°51'0 0.0
2018-Jul-18 21:00N 50°58' E 001°51'0 0.0
2018-Jul-18 20:30N 50°58' E 001°51'611.4
2018-Jul-18 20:00N 50°58' E 001°42'1019.5
2018-Jul-18 19:30N 51°04' E 001°29'713.5
2018-Jul-18 19:00N 51°07' E 001°20'0 0.0
2018-Jul-18 18:26N 51°07' E 001°20'2 4.7
2018-Jul-18 18:00N 51°07' E 001°23'816.5
2018-Jul-18 17:30N 51°04' E 001°35'917.7
2018-Jul-18 17:00N 50°58' E 001°46'3 6.1
2018-Jul-18 16:30N 50°58' E 001°51'0 0.0
2018-Jul-18 16:00N 50°58' E 001°51'5 9.3
2018-Jul-18 15:30N 50°58' E 001°44'1019.7
2018-Jul-18 15:00N 51°03' E 001°30'815.3
2018-Jul-18 14:31N 51°07' E 001°20'2 1.6
2018-Jul-18 13:30N 51°07' E 001°22'918.9
2018-Jul-18 13:01N 51°02' E 001°35'918.4
2018-Jul-18 12:31N 50°58' E 001°48'2 3.2
2018-Jul-18 12:00N 50°58' E 001°51'0 0.0
2018-Jul-18 11:30N 50°58' E 001°51'1615.7
2018-Jul-18 10:30N 51°03' E 001°28'6 9.2
2018-Jul-18 09:50N 51°07' E 001°20'0 0.1
2018-Jul-18 09:06N 51°07' E 001°20'0 3.8
2018-Jul-18 09:00N 51°07' E 001°21'918.3
2018-Jul-18 08:30N 51°04' E 001°34'918.8
2018-Jul-18 08:01N 50°58' E 001°45'4 7.0
2018-Jul-18 07:30N 50°58' E 001°51'0 0.0
2018-Jul-18 07:01N 50°58' E 001°51'4 8.8
2018-Jul-18 06:30N 50°58' E 001°44'1019.3
2018-Jul-18 06:00N 51°03' E 001°30'812.8
2018-Jul-18 05:22N 51°07' E 001°20'0 0.0
2018-Jul-18 05:00N 51°07' E 001°20'0 0.1
2018-Jul-18 04:26N 51°07' E 001°20'3 7.7
2018-Jul-18 04:00N 51°07' E 001°25'613.0
2018-Jul-18 03:31N 51°03' E 001°34'815.8
2018-Jul-18 03:00N 50°59' E 001°44'4 8.5
2018-Jul-18 02:30N 50°58' E 001°51'0 0.0
2018-Jul-18 02:00N 50°58' E 001°51'0 0.0
2018-Jul-18 01:31N 50°58' E 001°51'713.2
2018-Jul-18 01:01N 50°59' E 001°41'917.6
2018-Jul-18 00:31N 51°04' E 001°29'710.5
2018-Jul-17 23:52N 51°07' E 001°20'0 0.0
2018-Jul-17 23:17N 51°07' E 001°20'1 2.1
2018-Jul-17 23:00N 51°07' E 001°21'714.6
2018-Jul-17 22:30N 51°05' E 001°32'917.5
2018-Jul-17 22:00N 50°59' E 001°42'511.0
2018-Jul-17 21:30N 50°58' E 001°51'0 0.0
2018-Jul-17 21:00N 50°58' E 001°51'3 6.4
2018-Jul-17 20:30N 50°58' E 001°46'816.0
2018-Jul-17 20:00N 51°01' E 001°34'917.5
2018-Jul-17 19:30N 51°06' E 001°23'2 4.6
2018-Jul-17 19:00N 51°07' E 001°20'0 0.6
2018-Jul-17 18:30N 51°07' E 001°20'713.1
2018-Jul-17 18:00N 51°07' E 001°30'1019.1
2018-Jul-17 17:31N 51°00' E 001°41'713.3
2018-Jul-17 17:00N 50°58' E 001°51'0 0.0
2018-Jul-17 16:30N 50°58' E 001°51'3 5.1
2018-Jul-17 16:01N 50°58' E 001°47'1020.0
2018-Jul-17 15:30N 51°01' E 001°32'1019.0
2018-Jul-17 15:00N 51°07' E 001°20'1 0.7
2018-Jul-17 14:15N 51°07' E 001°20'0 0.6
2018-Jul-17 14:00N 51°07' E 001°20'815.4
2018-Jul-17 13:30N 51°04' E 001°31'918.8
2018-Jul-17 13:00N 50°59' E 001°44'5 9.5
2018-Jul-17 12:30N 50°58' E 001°51'0 0.0
2018-Jul-17 12:00N 50°58' E 001°51'1 2.9
2018-Jul-17 11:30N 50°58' E 001°49'816.8
2018-Jul-17 11:00N 51°01' E 001°36'918.6
2018-Jul-17 10:30N 51°06' E 001°24'3 2.6
2018-Jul-17 09:30N 51°07' E 001°20'1 2.3
2018-Jul-17 09:01N 51°06' E 001°21'1 2.3
2018-Jul-17 08:30N 51°07' E 001°21'0 0.0
2018-Jul-17 08:00N 51°07' E 001°21'0 0.0
2018-Jul-17 07:30N 51°07' E 001°21'0 0.0
2018-Jul-17 07:00N 51°07' E 001°21'0 0.0
2018-Jul-17 06:30N 51°07' E 001°21'0 0.6
2018-Jul-17 06:00N 51°07' E 001°20'0 0.0
2018-Jul-17 05:16N 51°07' E 001°20'0 0.0
2018-Jul-17 05:00N 51°07' E 001°20'0 0.0
2018-Jul-17 04:30N 51°07' E 001°20'1 2.5
2018-Jul-17 04:00N 51°07' E 001°22'816.0
2018-Jul-17 03:30N 51°04' E 001°34'816.0
2018-Jul-17 03:00N 50°59' E 001°43'510.4
2018-Jul-17 02:30N 50°58' E 001°51'0 0.0
2018-Jul-17 02:00N 50°58' E 001°51'0 0.0
2018-Jul-17 01:30N 50°58' E 001°51'713.9
2018-Jul-17 00:59N 50°59' E 001°40'917.7
2018-Jul-17 00:30N 51°04' E 001°29'7 5.5
2018-Jul-16 23:19N 51°07' E 001°20'1 4.0
2018-Jul-16 23:01N 51°07' E 001°22'1019.2
2018-Jul-16 22:30N 51°02' E 001°35'815.8
2018-Jul-16 22:00N 50°58' E 001°46'3 6.6
2018-Jul-16 21:30N 50°58' E 001°51'0 0.0
2018-Jul-16 21:00N 50°58' E 001°51'5 9.7
2018-Jul-16 20:30N 50°58' E 001°43'917.9
2018-Jul-16 20:00N 51°03' E 001°31'915.4
2018-Jul-16 19:27N 51°07' E 001°20'0 0.0
2018-Jul-16 18:46N 51°07' E 001°20'0 1.6
2018-Jul-16 18:29N 51°07' E 001°21'918.0
2018-Jul-16 18:00N 51°03' E 001°33'1019.1
2018-Jul-16 17:30N 50°58' E 001°46'3 6.7
2018-Jul-16 17:00N 50°58' E 001°51'0 0.0
2018-Jul-16 16:30N 50°58' E 001°51'2 3.8
2018-Jul-16 16:00N 50°58' E 001°48'1019.2
2018-Jul-16 15:31N 51°02' E 001°34'1019.5
2018-Jul-16 15:00N 51°07' E 001°21'1 1.0
2018-Jul-16 14:29N 51°07' E 001°20'0 1.0
2018-Jul-16 14:00N 51°07' E 001°21'917.5
2018-Jul-16 13:30N 51°04' E 001°34'918.5
2018-Jul-16 13:00N 50°58' E 001°45'4 7.5
2018-Jul-16 12:30N 50°58' E 001°51'0 0.0
2018-Jul-16 12:00N 50°58' E 001°51'2 3.9
2018-Jul-16 11:30N 50°58' E 001°48'917.7
2018-Jul-16 11:01N 50°60' E 001°34'918.4
2018-Jul-16 10:31N 51°06' E 001°23'3 3.3
2018-Jul-16 09:43N 51°07' E 001°20'0 0.0
2018-Jul-16 09:27N 51°07' E 001°20'2 5.4
2018-Jul-16 09:00N 51°07' E 001°24'1019.3
2018-Jul-16 08:30N 51°02' E 001°37'918.4
2018-Jul-16 08:01N 50°58' E 001°50'1 1.1
2018-Jul-16 07:30N 50°58' E 001°51'0 0.0
2018-Jul-16 07:00N 50°58' E 001°51'510.9
2018-Jul-16 06:30N 50°58' E 001°42'919.0
2018-Jul-16 06:00N 51°03' E 001°30'7 6.0
2018-Jul-16 04:47N 51°07' E 001°20'0 0.1
2018-Jul-16 04:24N 51°07' E 001°20'511.4
2018-Jul-16 04:00N 51°07' E 001°27'816.8
2018-Jul-16 03:30N 51°01' E 001°38'815.1
2018-Jul-16 03:01N 50°58' E 001°49'2 3.3
2018-Jul-16 02:31N 50°58' E 001°51'0 0.0
2018-Jul-16 02:00N 50°58' E 001°51'0 0.0
2018-Jul-16 01:30N 50°58' E 001°51'714.8
2018-Jul-16 01:00N 50°59' E 001°40'917.3
2018-Jul-16 00:30N 51°03' E 001°28'713.0
2018-Jul-16 00:00N 51°07' E 001°20'0 0.0
2018-Jul-15 23:30N 51°07' E 001°20'0 0.3
2018-Jul-15 23:00N 51°07' E 001°20'714.8
2018-Jul-15 22:30N 51°04' E 001°31'917.8
2018-Jul-15 22:00N 50°59' E 001°43'510.9
2018-Jul-15 21:31N 50°58' E 001°51'0 0.0
2018-Jul-15 21:00N 50°58' E 001°51'0 0.0
2018-Jul-15 20:30N 50°58' E 001°51'714.0
2018-Jul-15 20:00N 50°59' E 001°40'918.8
2018-Jul-15 19:30N 51°04' E 001°28'611.6
2018-Jul-15 19:00N 51°07' E 001°20'0 0.0
2018-Jul-15 18:30N 51°07' E 001°20'2 4.7
2018-Jul-15 18:00N 51°07' E 001°24'1019.3
2018-Jul-15 17:31N 51°02' E 001°37'918.2
2018-Jul-15 17:01N 50°58' E 001°50'1 1.2
2018-Jul-15 16:30N 50°58' E 001°51'0 0.0
2018-Jul-15 16:00N 50°58' E 001°51'612.2
2018-Jul-15 15:30N 50°59' E 001°41'1019.9
2018-Jul-15 15:00N 51°04' E 001°28'6 9.3
2018-Jul-15 14:21N 51°07' E 001°20'0 0.0
2018-Jul-15 13:56N 51°07' E 001°20'410.1
2018-Jul-15 13:30N 51°06' E 001°26'1019.0
2018-Jul-15 13:00N 51°01' E 001°39'815.5
2018-Jul-15 12:30N 50°58' E 001°51'0 0.5
2018-Jul-15 12:01N 50°58' E 001°51'0 0.0
2018-Jul-15 11:29N 50°58' E 001°51'715.0
2018-Jul-15 11:00N 50°59' E 001°40'1019.1
2018-Jul-15 10:30N 51°05' E 001°27'5 9.9
2018-Jul-15 09:59N 51°07' E 001°20'0 0.0
2018-Jul-15 09:30N 51°07' E 001°20'511.0
2018-Jul-15 09:01N 51°06' E 001°28'1019.8
2018-Jul-15 08:31N 50°60' E 001°41'612.9
2018-Jul-15 08:01N 50°58' E 001°51'0 0.0
2018-Jul-15 07:30N 50°58' E 001°51'2 3.8
2018-Jul-15 07:00N 50°58' E 001°48'816.5
2018-Jul-15 06:30N 51°00' E 001°35'1019.4
2018-Jul-15 06:01N 51°06' E 001°23'2 4.5
2018-Jul-15 05:30N 51°07' E 001°20'0 0.0
2018-Jul-15 05:00N 51°07' E 001°20'0 0.0
2018-Jul-15 04:30N 51°07' E 001°20'2 4.3
2018-Jul-15 04:01N 51°07' E 001°23'918.8
2018-Jul-15 03:30N 51°02' E 001°36'917.5
2018-Jul-15 03:00N 50°58' E 001°49'1 2.9
2018-Jul-15 02:31N 50°58' E 001°51'0 0.0
2018-Jul-15 02:00N 50°58' E 001°51'0 0.0
2018-Jul-15 01:31N 50°58' E 001°51'4 8.5
2018-Jul-15 01:01N 50°58' E 001°44'918.3
2018-Jul-15 00:30N 51°02' E 001°31'917.1
2018-Jul-15 00:00N 51°07' E 001°20'0 0.5
2018-Jul-14 23:30N 51°07' E 001°20'0 0.3
2018-Jul-14 23:00N 51°07' E 001°20'815.6
2018-Jul-14 22:30N 51°04' E 001°31'917.7
2018-Jul-14 22:00N 50°59' E 001°43'510.2
2018-Jul-14 21:30N 50°58' E 001°51'0 0.0
2018-Jul-14 21:00N 50°58' E 001°51'0 0.0
2018-Jul-14 20:30N 50°58' E 001°51'713.1
2018-Jul-14 20:01N 50°58' E 001°41'918.3
2018-Jul-14 19:30N 51°03' E 001°28'713.1
2018-Jul-14 19:00N 51°07' E 001°20'0 0.0
2018-Jul-14 18:30N 51°07' E 001°20'1 3.0
2018-Jul-14 18:01N 51°07' E 001°22'919.0
2018-Jul-14 17:31N 51°02' E 001°35'1019.1
2018-Jul-14 17:00N 50°58' E 001°49'1 2.4
2018-Jul-14 16:30N 50°58' E 001°51'1 1.8
2018-Jul-14 16:01N 50°58' E 001°50'815.4
2018-Jul-14 15:30N 50°60' E 001°38'1019.6
2018-Jul-14 15:00N 51°05' E 001°25'4 7.4
2018-Jul-14 14:30N 51°07' E 001°20'7 7.0
2018-Jul-14 13:31N 51°06' E 001°31'918.8
2018-Jul-14 13:01N 50°60' E 001°42'611.8
2018-Jul-14 12:30N 50°58' E 001°51'0 0.0
2018-Jul-14 12:00N 50°58' E 001°51'1 2.4
2018-Jul-14 11:31N 50°58' E 001°49'1019.8
2018-Jul-14 11:00N 51°01' E 001°34'1019.3
2018-Jul-14 10:30N 51°07' E 001°22'1 2.3
2018-Jul-14 10:00N 51°07' E 001°20'0 0.3
2018-Jul-14 09:29N 51°07' E 001°20'4 7.7
2018-Jul-14 09:00N 51°06' E 001°26'917.9
2018-Jul-14 08:30N 51°01' E 001°37'918.0
2018-Jul-14 08:00N 50°58' E 001°51'0 0.3
2018-Jul-14 07:30N 50°58' E 001°51'0 0.0
2018-Jul-14 07:00N 50°58' E 001°51'714.0
2018-Jul-14 06:30N 50°58' E 001°40'917.3
2018-Jul-14 06:01N 51°03' E 001°29'713.1
2018-Jul-14 05:28N 51°07' E 001°20'0 0.0
2018-Jul-14 04:56N 51°07' E 001°20'0 0.0
2018-Jul-14 04:23N 51°07' E 001°20'2 6.5
2018-Jul-14 04:00N 51°07' E 001°24'917.5
2018-Jul-14 03:30N 51°02' E 001°36'816.7
2018-Jul-14 03:01N 50°58' E 001°47'2 4.8
2018-Jul-14 02:30N 50°58' E 001°51'0 0.0
2018-Jul-14 02:00N 50°58' E 001°51'3 5.5
2018-Jul-14 01:30N 50°58' E 001°47'917.9
2018-Jul-14 01:00N 51°00' E 001°33'917.5
2018-Jul-14 00:30N 51°06' E 001°22'2 4.2
2018-Jul-13 23:59N 51°07' E 001°20'0 0.0
2018-Jul-13 23:29N 51°07' E 001°20'510.6
2018-Jul-13 23:00N 51°06' E 001°28'918.6
2018-Jul-13 22:30N 51°00' E 001°39'714.6
2018-Jul-13 22:00N 50°58' E 001°50'0 0.8
2018-Jul-13 21:30N 50°58' E 001°51'0 0.3
2018-Jul-13 21:00N 50°58' E 001°51'916.4
2018-Jul-13 20:29N 50°57' E 001°37'816.2
2018-Jul-13 20:01N 51°02' E 001°28'710.3
2018-Jul-13 19:19N 51°07' E 001°20'0 0.1
2018-Jul-13 18:47N 51°07' E 001°20'310.1
2018-Jul-13 18:30N 51°06' E 001°24'918.4
2018-Jul-13 18:00N 51°01' E 001°36'918.5
2018-Jul-13 17:30N 50°58' E 001°50'1 1.1
2018-Jul-13 17:00N 50°58' E 001°51'0 0.5
2018-Jul-13 16:31N 50°58' E 001°51'916.1
2018-Jul-13 15:59N 50°59' E 001°37'918.7
2018-Jul-13 15:31N 51°05' E 001°27'5 9.0
2018-Jul-13 14:58N 51°07' E 001°20'0 0.5
2018-Jul-13 14:01N 51°07' E 001°21'917.3
2018-Jul-13 13:30N 51°04' E 001°34'918.2
2018-Jul-13 13:01N 50°58' E 001°45'4 3.2
2018-Jul-13 11:47N 50°58' E 001°51'413.2
2018-Jul-13 11:31N 50°58' E 001°45'1019.6
2018-Jul-13 11:00N 51°03' E 001°31'816.8
2018-Jul-13 10:30N 51°07' E 001°20'0 0.2
2018-Jul-13 09:55N 51°07' E 001°20'0 0.2
2018-Jul-13 09:23N 51°07' E 001°20'411.7
2018-Jul-13 09:01N 51°06' E 001°27'1019.4
2018-Jul-13 08:30N 51°00' E 001°39'815.0
2018-Jul-13 08:00N 50°58' E 001°51'0 0.2
2018-Jul-13 07:28N 50°58' E 001°51'0 0.1
2018-Jul-13 06:59N 50°58' E 001°51'714.6
2018-Jul-13 06:30N 50°58' E 001°40'918.1
2018-Jul-13 06:00N 51°03' E 001°28'7 4.4
2018-Jul-13 04:29N 51°07' E 001°20'511.0
2018-Jul-13 04:00N 51°06' E 001°28'919.0
2018-Jul-13 03:30N 51°00' E 001°41'712.6
2018-Jul-13 02:57N 50°58' E 001°51'0 0.0
2018-Jul-13 02:30N 50°58' E 001°51'3 5.3
2018-Jul-13 02:00N 50°58' E 001°47'1018.9
2018-Jul-13 01:30N 51°02' E 001°33'1019.6
2018-Jul-13 01:01N 51°07' E 001°20'1 1.3
2018-Jul-13 00:23N 51°07' E 001°20'0 0.3
2018-Jul-12 23:59N 51°07' E 001°20'714.2
2018-Jul-12 23:30N 51°05' E 001°30'918.5
2018-Jul-12 23:00N 50°59' E 001°42'611.3
2018-Jul-12 22:30N 50°58' E 001°51'0 0.0
2018-Jul-12 22:01N 50°58' E 001°51'4 7.0
2018-Jul-12 21:30N 50°58' E 001°45'1019.3
2018-Jul-12 21:00N 51°02' E 001°32'917.3
2018-Jul-12 20:29N 51°07' E 001°20'0 0.1
2018-Jul-12 19:58N 51°07' E 001°20'0 0.0
2018-Jul-12 19:27N 51°07' E 001°20'0 0.0
2018-Jul-12 18:57N 51°07' E 001°20'0 0.5
2018-Jul-12 18:30N 51°07' E 001°20'3 6.8
2018-Jul-12 18:00N 51°06' E 001°25'1019.2
2018-Jul-12 17:30N 51°00' E 001°37'917.7
2018-Jul-12 17:01N 50°58' E 001°51'0 0.3
2018-Jul-12 16:28N 50°58' E 001°51'0 1.0
2018-Jul-12 16:00N 50°58' E 001°50'816.2
2018-Jul-12 15:30N 50°60' E 001°38'919.1
2018-Jul-12 15:00N 51°05' E 001°26'4 3.4
2018-Jul-12 13:49N 51°07' E 001°20'515.4
2018-Jul-12 13:31N 51°06' E 001°28'918.6
2018-Jul-12 13:00N 51°01' E 001°40'714.6
2018-Jul-12 12:30N 50°58' E 001°51'0 0.2
2018-Jul-12 11:48N 50°58' E 001°51'0 0.5
2018-Jul-12 11:30N 50°58' E 001°51'1118.3
2018-Jul-12 10:56N 51°01' E 001°35'819.6
2018-Jul-12 10:30N 51°05' E 001°24'3 5.3
2018-Jul-12 09:57N 51°07' E 001°20'0 0.0
2018-Jul-12 09:25N 51°07' E 001°20'411.0
2018-Jul-12 09:01N 51°06' E 001°27'918.8
2018-Jul-12 08:30N 51°01' E 001°39'815.6
2018-Jul-12 08:00N 50°58' E 001°51'0 0.3
2018-Jul-12 07:30N 50°58' E 001°51'0 0.1
2018-Jul-12 07:00N 50°58' E 001°51'  
Track history (hours):
 
Tides and Currents Weather Stations Pressure Air Temp Water Temp Dewpoint Dewpoint Depression Visibility Wind Speed Wind Dir Waves Ship Positions

Pride Of Kent

Operator: P & O Ferries

Last reported at 2018-Jul-22 06:59 UTC. Time now 2018-Jul-22 07:01 UTC.
Position N 50°58' E 001°51'.

Length 180 m; draft 6 m.

Type: Passenger vessel. MMSI: 232009000.

Date/timePositionNaut miles runAvg speedWind from/ knotsBaromVisibWave heightAir tempDewpointWater temp
2018-Jul-22 06:59N 50°58' E 001°51'4 8.6
2018-Jul-22 06:31N 50°58' E 001°45'1020.1
2018-Jul-22 06:01N 51°03' E 001°31'813.7
2018-Jul-22 05:26N 51°07' E 001°20'0 0.0
2018-Jul-22 04:38N 51°07' E 001°20'0 0.0
2018-Jul-22 04:22N 51°07' E 001°20'4 9.7
2018-Jul-22 04:01N 51°06' E 001°25'1019.8
2018-Jul-22 03:30N 51°01' E 001°39'816.0
2018-Jul-22 03:00N 50°58' E 001°51'0 0.4
2018-Jul-22 02:31N 50°58' E 001°51'0 0.0
2018-Jul-22 02:01N 50°58' E 001°51'0 0.0
2018-Jul-22 01:30N 50°58' E 001°51'0 0.0
2018-Jul-22 01:01N 50°58' E 001°51'0 0.0
2018-Jul-22 00:31N 50°58' E 001°51'0 0.0
2018-Jul-22 00:01N 50°58' E 001°51'0 0.0
2018-Jul-21 23:30N 50°58' E 001°51'0 0.0
2018-Jul-21 23:01N 50°58' E 001°51'0 0.0
2018-Jul-21 22:31N 50°58' E 001°51'0 0.0
2018-Jul-21 22:00N 50°58' E 001°51'0 0.0
2018-Jul-21 21:30N 50°58' E 001°51'0 0.0
2018-Jul-21 21:01N 50°58' E 001°51'0 0.0
2018-Jul-21 20:30N 50°58' E 001°51'5 9.3
2018-Jul-21 20:00N 50°58' E 001°44'1019.6
2018-Jul-21 19:31N 51°04' E 001°31'8 8.3
2018-Jul-21 18:35N 51°07' E 001°20'0 0.3
2018-Jul-21 18:16N 51°07' E 001°20'2 8.0
2018-Jul-21 18:01N 51°07' E 001°23'918.2
2018-Jul-21 17:30N 51°02' E 001°36'917.6
2018-Jul-21 17:00N 50°58' E 001°48'2 3.2
2018-Jul-21 16:30N 50°58' E 001°51'0 0.0
2018-Jul-21 16:00N 50°58' E 001°51'511.0
2018-Jul-21 15:30N 50°59' E 001°42'918.7
2018-Jul-21 15:01N 51°03' E 001°30'7 9.1
2018-Jul-21 14:13N 51°07' E 001°20'1 1.1
2018-Jul-21 13:30N 51°07' E 001°20'918.2
2018-Jul-21 13:01N 51°03' E 001°33'1019.4
2018-Jul-21 12:31N 50°58' E 001°46'3 6.1
2018-Jul-21 12:00N 50°58' E 001°51'0 0.0
2018-Jul-21 11:30N 50°58' E 001°51'5 9.4
2018-Jul-21 11:01N 50°58' E 001°43'1019.1
2018-Jul-21 10:30N 51°03' E 001°31'8 7.8
2018-Jul-21 09:29N 51°07' E 001°20'0 0.3
2018-Jul-21 09:00N 51°07' E 001°20'816.3
2018-Jul-21 08:30N 51°04' E 001°32'1019.0
2018-Jul-21 08:00N 50°58' E 001°44'4 8.8
2018-Jul-21 07:31N 50°58' E 001°51'0 0.0
2018-Jul-21 07:01N 50°58' E 001°51'2 3.6
2018-Jul-21 06:30N 50°58' E 001°48'918.8
2018-Jul-21 06:00N 51°01' E 001°34'1020.0
2018-Jul-21 05:30N 51°06' E 001°20'1 0.9
2018-Jul-21 04:16N 51°07' E 001°20'1 5.1
2018-Jul-21 04:00N 51°07' E 001°22'816.5
2018-Jul-21 03:30N 51°04' E 001°34'816.0
2018-Jul-21 03:00N 50°59' E 001°44'4 8.9
2018-Jul-21 02:31N 50°58' E 001°51'0 0.0
2018-Jul-21 02:00N 50°58' E 001°51'0 0.3
2018-Jul-21 01:30N 50°58' E 001°51'816.1
2018-Jul-21 01:00N 50°60' E 001°38'1019.5
2018-Jul-21 00:31N 51°05' E 001°26'4 6.6
2018-Jul-20 23:53N 51°07' E 001°20'0 0.2
2018-Jul-20 22:54N 51°07' E 001°20'614.9
2018-Jul-20 22:31N 51°06' E 001°29'918.5
2018-Jul-20 22:01N 50°60' E 001°41'713.6
2018-Jul-20 21:30N 50°58' E 001°51'0 0.0
2018-Jul-20 21:00N 50°58' E 001°51'3 5.2
2018-Jul-20 20:30N 50°58' E 001°47'1019.6
2018-Jul-20 20:00N 51°02' E 001°33'1019.1
2018-Jul-20 19:31N 51°07' E 001°20'0 0.2
2018-Jul-20 18:53N 51°07' E 001°20'0 0.0
2018-Jul-20 18:25N 51°07' E 001°20'2 4.2
2018-Jul-20 18:01N 51°06' E 001°22'816.6
2018-Jul-20 17:31N 51°03' E 001°34'918.3
2018-Jul-20 17:01N 50°58' E 001°46'3 5.4
2018-Jul-20 16:29N 50°58' E 001°51'0 0.0
2018-Jul-20 16:00N 50°58' E 001°51'816.0
2018-Jul-20 15:30N 50°59' E 001°38'1019.1
2018-Jul-20 15:00N 51°05' E 001°26'5 3.8
2018-Jul-20 13:49N 51°07' E 001°20'414.2
2018-Jul-20 13:30N 51°06' E 001°27'1019.7
2018-Jul-20 13:01N 51°00' E 001°40'815.0
2018-Jul-20 12:30N 50°58' E 001°51'0 0.1
2018-Jul-20 12:00N 50°58' E 001°51'0 0.0
2018-Jul-20 11:30N 50°58' E 001°51'611.3
2018-Jul-20 11:00N 50°58' E 001°42'918.6
2018-Jul-20 10:31N 51°03' E 001°29'810.3
2018-Jul-20 09:47N 51°07' E 001°20'0 0.0
2018-Jul-20 09:29N 51°07' E 001°20'0 0.5
2018-Jul-20 09:00N 51°07' E 001°20'918.4
2018-Jul-20 08:30N 51°04' E 001°34'919.0
2018-Jul-20 08:00N 50°58' E 001°46'3 6.6
2018-Jul-20 07:30N 50°58' E 001°51'0 0.0
2018-Jul-20 07:00N 50°58' E 001°51'4 8.5
2018-Jul-20 06:30N 50°58' E 001°44'1020.0
2018-Jul-20 06:01N 51°03' E 001°31'815.2
2018-Jul-20 05:28N 51°07' E 001°20'0 0.0
2018-Jul-20 04:59N 51°07' E 001°20'0 0.0
2018-Jul-20 04:30N 51°07' E 001°20'3 5.6
2018-Jul-20 04:01N 51°07' E 001°25'714.7
2018-Jul-20 03:30N 51°03' E 001°34'815.5
2018-Jul-20 03:00N 50°59' E 001°44'4 8.8
2018-Jul-20 02:31N 50°58' E 001°51'0 0.0
2018-Jul-20 02:01N 50°58' E 001°51'0 0.7
2018-Jul-20 01:30N 50°58' E 001°51'816.8
2018-Jul-20 01:00N 50°59' E 001°37'1019.0
2018-Jul-20 00:30N 51°05' E 001°25'4 7.8
2018-Jul-20 00:00N 51°07' E 001°20'0 0.0
2018-Jul-19 23:30N 51°07' E 001°20'0 0.3
2018-Jul-19 23:01N 51°07' E 001°20'713.9
2018-Jul-19 22:30N 51°05' E 001°30'918.0
2018-Jul-19 22:00N 50°59' E 001°42'611.6
2018-Jul-19 21:30N 50°58' E 001°51'0 0.0
2018-Jul-19 21:00N 50°58' E 001°51'3 5.5
2018-Jul-19 20:30N 50°58' E 001°47'917.2
2018-Jul-19 20:00N 51°01' E 001°34'918.8
2018-Jul-19 19:30N 51°07' E 001°22'1 2.5
2018-Jul-19 18:56N 51°07' E 001°20'1 1.3
2018-Jul-19 18:30N 51°07' E 001°20'3 6.9
2018-Jul-19 18:01N 51°06' E 001°25'510.7
2018-Jul-19 17:30N 51°11' E 001°28'3 6.7
2018-Jul-19 17:00N 51°08' E 001°26'4 6.8
2018-Jul-19 16:29N 51°07' E 001°20'0 0.2
2018-Jul-19 15:56N 51°07' E 001°20'614.7
2018-Jul-19 15:30N 51°06' E 001°30'815.4
2018-Jul-19 15:00N 51°00' E 001°39'8 7.9
2018-Jul-19 14:01N 50°58' E 001°51'0 0.0
2018-Jul-19 13:30N 50°58' E 001°51'0 0.0
2018-Jul-19 13:01N 50°58' E 001°51'0 0.0
2018-Jul-19 12:30N 50°58' E 001°51'0 0.0
2018-Jul-19 12:01N 50°58' E 001°51'3 5.1
2018-Jul-19 11:30N 50°58' E 001°47'817.0
2018-Jul-19 11:00N 51°01' E 001°34'918.2
2018-Jul-19 10:30N 51°06' E 001°22'2 4.0
2018-Jul-19 10:00N 51°07' E 001°20'0 0.0
2018-Jul-19 09:30N 51°07' E 001°20'1 2.5
2018-Jul-19 09:00N 51°07' E 001°22'917.7
2018-Jul-19 08:31N 51°04' E 001°35'918.4
2018-Jul-19 08:01N 50°58' E 001°46'3 5.7
2018-Jul-19 07:30N 50°58' E 001°51'0 0.0
2018-Jul-19 07:00N 50°58' E 001°51'510.1
2018-Jul-19 06:30N 50°58' E 001°43'1019.3
2018-Jul-19 06:01N 51°01' E 001°29'815.9
2018-Jul-19 05:30N 51°07' E 001°20'0 0.0
2018-Jul-19 05:01N 51°07' E 001°20'0 0.0
2018-Jul-19 04:30N 51°07' E 001°20'2 3.8
2018-Jul-19 04:01N 51°07' E 001°23'816.6
2018-Jul-19 03:31N 51°04' E 001°35'917.1
2018-Jul-19 03:00N 50°58' E 001°45'4 7.6
2018-Jul-19 02:30N 50°58' E 001°51'0 0.0
2018-Jul-19 02:00N 50°58' E 001°51'0 0.0
2018-Jul-19 01:30N 50°58' E 001°51'611.9
2018-Jul-19 01:00N 50°58' E 001°42'918.9
2018-Jul-19 00:31N 51°03' E 001°28'713.0
2018-Jul-18 23:58N 51°07' E 001°20'0 0.0
2018-Jul-18 23:30N 51°07' E 001°20'0 0.3
2018-Jul-18 23:00N 51°07' E 001°20'714.0
2018-Jul-18 22:30N 51°05' E 001°31'815.8
2018-Jul-18 22:00N 50°60' E 001°40'713.9
2018-Jul-18 21:30N 50°58' E 001°51'0 0.0
2018-Jul-18 21:00N 50°58' E 001°51'0 0.0
2018-Jul-18 20:30N 50°58' E 001°51'611.4
2018-Jul-18 20:00N 50°58' E 001°42'1019.5
2018-Jul-18 19:30N 51°04' E 001°29'713.5
2018-Jul-18 19:00N 51°07' E 001°20'0 0.0
2018-Jul-18 18:26N 51°07' E 001°20'2 4.7
2018-Jul-18 18:00N 51°07' E 001°23'816.5
2018-Jul-18 17:30N 51°04' E 001°35'917.7
2018-Jul-18 17:00N 50°58' E 001°46'3 6.1
2018-Jul-18 16:30N 50°58' E 001°51'0 0.0
2018-Jul-18 16:00N 50°58' E 001°51'5 9.3
2018-Jul-18 15:30N 50°58' E 001°44'1019.7
2018-Jul-18 15:00N 51°03' E 001°30'815.3
2018-Jul-18 14:31N 51°07' E 001°20'2 1.6
2018-Jul-18 13:30N 51°07' E 001°22'918.9
2018-Jul-18 13:01N 51°02' E 001°35'918.4
2018-Jul-18 12:31N 50°58' E 001°48'2 3.2
2018-Jul-18 12:00N 50°58' E 001°51'0 0.0
2018-Jul-18 11:30N 50°58' E 001°51'1615.7
2018-Jul-18 10:30N 51°03' E 001°28'6 9.2
2018-Jul-18 09:50N 51°07' E 001°20'0 0.1
2018-Jul-18 09:06N 51°07' E 001°20'0 3.8
2018-Jul-18 09:00N 51°07' E 001°21'918.3
2018-Jul-18 08:30N 51°04' E 001°34'918.8
2018-Jul-18 08:01N 50°58' E 001°45'4 7.0
2018-Jul-18 07:30N 50°58' E 001°51'0 0.0
2018-Jul-18 07:01N 50°58' E 001°51'4 8.8
2018-Jul-18 06:30N 50°58' E 001°44'1019.3
2018-Jul-18 06:00N 51°03' E 001°30'812.8
2018-Jul-18 05:22N 51°07' E 001°20'0 0.0
2018-Jul-18 05:00N 51°07' E 001°20'0 0.1
2018-Jul-18 04:26N 51°07' E 001°20'3 7.7
2018-Jul-18 04:00N 51°07' E 001°25'613.0
2018-Jul-18 03:31N 51°03' E 001°34'815.8
2018-Jul-18 03:00N 50°59' E 001°44'4 8.5
2018-Jul-18 02:30N 50°58' E 001°51'0 0.0
2018-Jul-18 02:00N 50°58' E 001°51'0 0.0
2018-Jul-18 01:31N 50°58' E 001°51'713.2
2018-Jul-18 01:01N 50°59' E 001°41'917.6
2018-Jul-18 00:31N 51°04' E 001°29'710.5
2018-Jul-17 23:52N 51°07' E 001°20'0 0.0
2018-Jul-17 23:17N 51°07' E 001°20'1 2.1
2018-Jul-17 23:00N 51°07' E 001°21'714.6
2018-Jul-17 22:30N 51°05' E 001°32'917.5
2018-Jul-17 22:00N 50°59' E 001°42'511.0
2018-Jul-17 21:30N 50°58' E 001°51'0 0.0
2018-Jul-17 21:00N 50°58' E 001°51'3 6.4
2018-Jul-17 20:30N 50°58' E 001°46'816.0
2018-Jul-17 20:00N 51°01' E 001°34'917.5
2018-Jul-17 19:30N 51°06' E 001°23'2 4.6
2018-Jul-17 19:00N 51°07' E 001°20'0 0.6
2018-Jul-17 18:30N 51°07' E 001°20'713.1
2018-Jul-17 18:00N 51°07' E 001°30'1019.1
2018-Jul-17 17:31N 51°00' E 001°41'713.3
2018-Jul-17 17:00N 50°58' E 001°51'0 0.0
2018-Jul-17 16:30N 50°58' E 001°51'3 5.1
2018-Jul-17 16:01N 50°58' E 001°47'1020.0
2018-Jul-17 15:30N 51°01' E 001°32'1019.0
2018-Jul-17 15:00N 51°07' E 001°20'1 0.7
2018-Jul-17 14:15N 51°07' E 001°20'0 0.6
2018-Jul-17 14:00N 51°07' E 001°20'815.4
2018-Jul-17 13:30N 51°04' E 001°31'918.8
2018-Jul-17 13:00N 50°59' E 001°44'5 9.5
2018-Jul-17 12:30N 50°58' E 001°51'0 0.0
2018-Jul-17 12:00N 50°58' E 001°51'1 2.9
2018-Jul-17 11:30N 50°58' E 001°49'816.8
2018-Jul-17 11:00N 51°01' E 001°36'918.6
2018-Jul-17 10:30N 51°06' E 001°24'3 2.6
2018-Jul-17 09:30N 51°07' E 001°20'1 2.3
2018-Jul-17 09:01N 51°06' E 001°21'1 2.3
2018-Jul-17 08:30N 51°07' E 001°21'0 0.0
2018-Jul-17 08:00N 51°07' E 001°21'0 0.0
2018-Jul-17 07:30N 51°07' E 001°21'0 0.0
2018-Jul-17 07:00N 51°07' E 001°21'0 0.0
2018-Jul-17 06:30N 51°07' E 001°21'0 0.6
2018-Jul-17 06:00N 51°07' E 001°20'0 0.0
2018-Jul-17 05:16N 51°07' E 001°20'0 0.0
2018-Jul-17 05:00N 51°07' E 001°20'0 0.0
2018-Jul-17 04:30N 51°07' E 001°20'1 2.5
2018-Jul-17 04:00N 51°07' E 001°22'816.0
2018-Jul-17 03:30N 51°04' E 001°34'816.0
2018-Jul-17 03:00N 50°59' E 001°43'510.4
2018-Jul-17 02:30N 50°58' E 001°51'0 0.0
2018-Jul-17 02:00N 50°58' E 001°51'0 0.0
2018-Jul-17 01:30N 50°58' E 001°51'713.9
2018-Jul-17 00:59N 50°59' E 001°40'917.7
2018-Jul-17 00:30N 51°04' E 001°29'7 5.5
2018-Jul-16 23:19N 51°07' E 001°20'1 4.0
2018-Jul-16 23:01N 51°07' E 001°22'1019.2
2018-Jul-16 22:30N 51°02' E 001°35'815.8
2018-Jul-16 22:00N 50°58' E 001°46'3 6.6
2018-Jul-16 21:30N 50°58' E 001°51'0 0.0
2018-Jul-16 21:00N 50°58' E 001°51'5 9.7
2018-Jul-16 20:30N 50°58' E 001°43'917.9
2018-Jul-16 20:00N 51°03' E 001°31'915.4
2018-Jul-16 19:27N 51°07' E 001°20'0 0.0
2018-Jul-16 18:46N 51°07' E 001°20'0 1.6
2018-Jul-16 18:29N 51°07' E 001°21'918.0
2018-Jul-16 18:00N 51°03' E 001°33'1019.1
2018-Jul-16 17:30N 50°58' E 001°46'3 6.7
2018-Jul-16 17:00N 50°58' E 001°51'0 0.0
2018-Jul-16 16:30N 50°58' E 001°51'2 3.8
2018-Jul-16 16:00N 50°58' E 001°48'1019.2
2018-Jul-16 15:31N 51°02' E 001°34'1019.5
2018-Jul-16 15:00N 51°07' E 001°21'1 1.0
2018-Jul-16 14:29N 51°07' E 001°20'0 1.0
2018-Jul-16 14:00N 51°07' E 001°21'917.5
2018-Jul-16 13:30N 51°04' E 001°34'918.5
2018-Jul-16 13:00N 50°58' E 001°45'4 7.5
2018-Jul-16 12:30N 50°58' E 001°51'0 0.0
2018-Jul-16 12:00N 50°58' E 001°51'2 3.9
2018-Jul-16 11:30N 50°58' E 001°48'917.7
2018-Jul-16 11:01N 50°60' E 001°34'918.4
2018-Jul-16 10:31N 51°06' E 001°23'3 3.3
2018-Jul-16 09:43N 51°07' E 001°20'0 0.0
2018-Jul-16 09:27N 51°07' E 001°20'2 5.4
2018-Jul-16 09:00N 51°07' E 001°24'1019.3
2018-Jul-16 08:30N 51°02' E 001°37'918.4
2018-Jul-16 08:01N 50°58' E 001°50'1 1.1
2018-Jul-16 07:30N 50°58' E 001°51'0 0.0
2018-Jul-16 07:00N 50°58' E 001°51'510.9
2018-Jul-16 06:30N 50°58' E 001°42'919.0
2018-Jul-16 06:00N 51°03' E 001°30'7 6.0
2018-Jul-16 04:47N 51°07' E 001°20'0 0.1
2018-Jul-16 04:24N 51°07' E 001°20'511.4
2018-Jul-16 04:00N 51°07' E 001°27'816.8
2018-Jul-16 03:30N 51°01' E 001°38'815.1
2018-Jul-16 03:01N 50°58' E 001°49'2 3.3
2018-Jul-16 02:31N 50°58' E 001°51'0 0.0
2018-Jul-16 02:00N 50°58' E 001°51'0 0.0
2018-Jul-16 01:30N 50°58' E 001°51'714.8
2018-Jul-16 01:00N 50°59' E 001°40'917.3
2018-Jul-16 00:30N 51°03' E 001°28'713.0
2018-Jul-16 00:00N 51°07' E 001°20'0 0.0
2018-Jul-15 23:30N 51°07' E 001°20'0 0.3
2018-Jul-15 23:00N 51°07' E 001°20'714.8
2018-Jul-15 22:30N 51°04' E 001°31'917.8
2018-Jul-15 22:00N 50°59' E 001°43'510.9
2018-Jul-15 21:31N 50°58' E 001°51'0 0.0
2018-Jul-15 21:00N 50°58' E 001°51'0 0.0
2018-Jul-15 20:30N 50°58' E 001°51'714.0
2018-Jul-15 20:00N 50°59' E 001°40'918.8
2018-Jul-15 19:30N 51°04' E 001°28'611.6
2018-Jul-15 19:00N 51°07' E 001°20'0 0.0
2018-Jul-15 18:30N 51°07' E 001°20'2 4.7
2018-Jul-15 18:00N 51°07' E 001°24'1019.3
2018-Jul-15 17:31N 51°02' E 001°37'918.2
2018-Jul-15 17:01N 50°58' E 001°50'1 1.2
2018-Jul-15 16:30N 50°58' E 001°51'0 0.0
2018-Jul-15 16:00N 50°58' E 001°51'612.2
2018-Jul-15 15:30N 50°59' E 001°41'1019.9
2018-Jul-15 15:00N 51°04' E 001°28'6 9.3
2018-Jul-15 14:21N 51°07' E 001°20'0 0.0
2018-Jul-15 13:56N 51°07' E 001°20'410.1
2018-Jul-15 13:30N 51°06' E 001°26'1019.0
2018-Jul-15 13:00N 51°01' E 001°39'815.5
2018-Jul-15 12:30N 50°58' E 001°51'0 0.5
2018-Jul-15 12:01N 50°58' E 001°51'0 0.0
2018-Jul-15 11:29N 50°58' E 001°51'715.0
2018-Jul-15 11:00N 50°59' E 001°40'1019.1
2018-Jul-15 10:30N 51°05' E 001°27'5 9.9
2018-Jul-15 09:59N 51°07' E 001°20'0 0.0
2018-Jul-15 09:30N 51°07' E 001°20'511.0
2018-Jul-15 09:01N 51°06' E 001°28'1019.8
2018-Jul-15 08:31N 50°60' E 001°41'612.9
2018-Jul-15 08:01N 50°58' E 001°51'0 0.0
2018-Jul-15 07:30N 50°58' E 001°51'2 3.8
2018-Jul-15 07:00N 50°58' E 001°48'816.5
2018-Jul-15 06:30N 51°00' E 001°35'1019.4
2018-Jul-15 06:01N 51°06' E 001°23'2 4.5
2018-Jul-15 05:30N 51°07' E 001°20'0 0.0
2018-Jul-15 05:00N 51°07' E 001°20'0 0.0
2018-Jul-15 04:30N 51°07' E 001°20'2 4.3
2018-Jul-15 04:01N 51°07' E 001°23'918.8
2018-Jul-15 03:30N 51°02' E 001°36'917.5
2018-Jul-15 03:00N 50°58' E 001°49'1 2.9
2018-Jul-15 02:31N 50°58' E 001°51'0 0.0
2018-Jul-15 02:00N 50°58' E 001°51'0 0.0
2018-Jul-15 01:31N 50°58' E 001°51'4 8.5
2018-Jul-15 01:01N 50°58' E 001°44'918.3
2018-Jul-15 00:30N 51°02' E 001°31'917.1
2018-Jul-15 00:00N 51°07' E 001°20'0 0.5
2018-Jul-14 23:30N 51°07' E 001°20'0 0.3
2018-Jul-14 23:00N 51°07' E 001°20'815.6
2018-Jul-14 22:30N 51°04' E 001°31'917.7
2018-Jul-14 22:00N 50°59' E 001°43'510.2
2018-Jul-14 21:30N 50°58' E 001°51'0 0.0
2018-Jul-14 21:00N 50°58' E 001°51'0 0.0
2018-Jul-14 20:30N 50°58' E 001°51'713.1
2018-Jul-14 20:01N 50°58' E 001°41'918.3
2018-Jul-14 19:30N 51°03' E 001°28'713.1
2018-Jul-14 19:00N 51°07' E 001°20'0 0.0
2018-Jul-14 18:30N 51°07' E 001°20'1 3.0
2018-Jul-14 18:01N 51°07' E 001°22'919.0
2018-Jul-14 17:31N 51°02' E 001°35'1019.1
2018-Jul-14 17:00N 50°58' E 001°49'1 2.4
2018-Jul-14 16:30N 50°58' E 001°51'1 1.8
2018-Jul-14 16:01N 50°58' E 001°50'815.4
2018-Jul-14 15:30N 50°60' E 001°38'1019.6
2018-Jul-14 15:00N 51°05' E 001°25'4 7.4
2018-Jul-14 14:30N 51°07' E 001°20'7 7.0
2018-Jul-14 13:31N 51°06' E 001°31'918.8
2018-Jul-14 13:01N 50°60' E 001°42'611.8
2018-Jul-14 12:30N 50°58' E 001°51'0 0.0
2018-Jul-14 12:00N 50°58' E 001°51'1 2.4
2018-Jul-14 11:31N 50°58' E 001°49'1019.8
2018-Jul-14 11:00N 51°01' E 001°34'1019.3
2018-Jul-14 10:30N 51°07' E 001°22'1 2.3
2018-Jul-14 10:00N 51°07' E 001°20'0 0.3
2018-Jul-14 09:29N 51°07' E 001°20'4 7.7
2018-Jul-14 09:00N 51°06' E 001°26'917.9
2018-Jul-14 08:30N 51°01' E 001°37'918.0
2018-Jul-14 08:00N 50°58' E 001°51'0 0.3
2018-Jul-14 07:30N 50°58' E 001°51'0 0.0
2018-Jul-14 07:00N 50°58' E 001°51'714.0
2018-Jul-14 06:30N 50°58' E 001°40'917.3
2018-Jul-14 06:01N 51°03' E 001°29'713.1
2018-Jul-14 05:28N 51°07' E 001°20'0 0.0
2018-Jul-14 04:56N 51°07' E 001°20'0 0.0
2018-Jul-14 04:23N 51°07' E 001°20'2 6.5
2018-Jul-14 04:00N 51°07' E 001°24'917.5
2018-Jul-14 03:30N 51°02' E 001°36'816.7
2018-Jul-14 03:01N 50°58' E 001°47'2 4.8
2018-Jul-14 02:30N 50°58' E 001°51'0 0.0
2018-Jul-14 02:00N 50°58' E 001°51'3 5.5
2018-Jul-14 01:30N 50°58' E 001°47'917.9
2018-Jul-14 01:00N 51°00' E 001°33'917.5
2018-Jul-14 00:30N 51°06' E 001°22'2 4.2
2018-Jul-13 23:59N 51°07' E 001°20'0 0.0
2018-Jul-13 23:29N 51°07' E 001°20'510.6
2018-Jul-13 23:00N 51°06' E 001°28'918.6
2018-Jul-13 22:30N 51°00' E 001°39'714.6
2018-Jul-13 22:00N 50°58' E 001°50'0 0.8
2018-Jul-13 21:30N 50°58' E 001°51'0 0.3
2018-Jul-13 21:00N 50°58' E 001°51'916.4
2018-Jul-13 20:29N 50°57' E 001°37'816.2
2018-Jul-13 20:01N 51°02' E 001°28'710.3
2018-Jul-13 19:19N 51°07' E 001°20'0 0.1
2018-Jul-13 18:47N 51°07' E 001°20'310.1
2018-Jul-13 18:30N 51°06' E 001°24'918.4
2018-Jul-13 18:00N 51°01' E 001°36'918.5
2018-Jul-13 17:30N 50°58' E 001°50'1 1.1
2018-Jul-13 17:00N 50°58' E 001°51'0 0.5
2018-Jul-13 16:31N 50°58' E 001°51'916.1
2018-Jul-13 15:59N 50°59' E 001°37'918.7
2018-Jul-13 15:31N 51°05' E 001°27'5 9.0
2018-Jul-13 14:58N 51°07' E 001°20'0 0.5
2018-Jul-13 14:01N 51°07' E 001°21'917.3
2018-Jul-13 13:30N 51°04' E 001°34'918.2
2018-Jul-13 13:01N 50°58' E 001°45'4 3.2
2018-Jul-13 11:47N 50°58' E 001°51'413.2
2018-Jul-13 11:31N 50°58' E 001°45'1019.6
2018-Jul-13 11:00N 51°03' E 001°31'816.8
2018-Jul-13 10:30N 51°07' E 001°20'0 0.2
2018-Jul-13 09:55N 51°07' E 001°20'0 0.2
2018-Jul-13 09:23N 51°07' E 001°20'411.7
2018-Jul-13 09:01N 51°06' E 001°27'1019.4
2018-Jul-13 08:30N 51°00' E 001°39'815.0
2018-Jul-13 08:00N 50°58' E 001°51'0 0.2
2018-Jul-13 07:28N 50°58' E 001°51'0 0.1
2018-Jul-13 06:59N 50°58' E 001°51'714.6
2018-Jul-13 06:30N 50°58' E 001°40'918.1
2018-Jul-13 06:00N 51°03' E 001°28'7 4.4
2018-Jul-13 04:29N 51°07' E 001°20'511.0
2018-Jul-13 04:00N 51°06' E 001°28'919.0
2018-Jul-13 03:30N 51°00' E 001°41'712.6
2018-Jul-13 02:57N 50°58' E 001°51'0 0.0
2018-Jul-13 02:30N 50°58' E 001°51'3 5.3
2018-Jul-13 02:00N 50°58' E 001°47'1018.9
2018-Jul-13 01:30N 51°02' E 001°33'1019.6
2018-Jul-13 01:01N 51°07' E 001°20'1 1.3
2018-Jul-13 00:23N 51°07' E 001°20'0 0.3
2018-Jul-12 23:59N 51°07' E 001°20'714.2
2018-Jul-12 23:30N 51°05' E 001°30'918.5
2018-Jul-12 23:00N 50°59' E 001°42'611.3
2018-Jul-12 22:30N 50°58' E 001°51'0 0.0
2018-Jul-12 22:01N 50°58' E 001°51'4 7.0
2018-Jul-12 21:30N 50°58' E 001°45'1019.3
2018-Jul-12 21:00N 51°02' E 001°32'917.3
2018-Jul-12 20:29N 51°07' E 001°20'0 0.1
2018-Jul-12 19:58N 51°07' E 001°20'0 0.0
2018-Jul-12 19:27N 51°07' E 001°20'0 0.0
2018-Jul-12 18:57N 51°07' E 001°20'0 0.5
2018-Jul-12 18:30N 51°07' E 001°20'3 6.8
2018-Jul-12 18:00N 51°06' E 001°25'1019.2
2018-Jul-12 17:30N 51°00' E 001°37'917.7
2018-Jul-12 17:01N 50°58' E 001°51'0 0.3
2018-Jul-12 16:28N 50°58' E 001°51'0 1.0
2018-Jul-12 16:00N 50°58' E 001°50'816.2
2018-Jul-12 15:30N 50°60' E 001°38'919.1
2018-Jul-12 15:00N 51°05' E 001°26'4 3.4
2018-Jul-12 13:49N 51°07' E 001°20'515.4
2018-Jul-12 13:31N 51°06' E 001°28'918.6
2018-Jul-12 13:00N 51°01' E 001°40'714.6
2018-Jul-12 12:30N 50°58' E 001°51'0 0.2
2018-Jul-12 11:48N 50°58' E 001°51'0 0.5
2018-Jul-12 11:30N 50°58' E 001°51'1118.3
2018-Jul-12 10:56N 51°01' E 001°35'819.6
2018-Jul-12 10:30N 51°05' E 001°24'3 5.3
2018-Jul-12 09:57N 51°07' E 001°20'0 0.0
2018-Jul-12 09:25N 51°07' E 001°20'411.0
2018-Jul-12 09:01N 51°06' E 001°27'918.8
2018-Jul-12 08:30N 51°01' E 001°39'815.6
2018-Jul-12 08:00N 50°58' E 001°51'0 0.3
2018-Jul-12 07:30N 50°58' E 001°51'0 0.1
2018-Jul-12 07:00N 50°58' E 001°51'  

Dump ship's entire track history